Time;durP1;ratioP1;P1;durP2;ratioP2;P2;SDS_P1;SDS_P2;PMS_P1;PMS_P2;Temp;Humidity;BMP_temperature;BMP_pressure;BME280_temperature;BME280_humidity;BME280_pressure;Samples;Min_cycle;Max_cycle;Signal;HPM_P1;HPM_P2
2024/01/19 00:00:26;;;;;;;;;;;;;;;-2.05;100.00;101318.25;4996166;28;20275;-73
2024/01/19 00:02:52;;;;;;;;;;;;;;;-1.97;100.00;101334.75;4980722;28;19928;-74
2024/01/19 00:05:18;;;;;;;;;;;;;;;-1.99;100.00;101332.16;4995152;28;20355;-74
2024/01/19 00:07:44;;;;;;;;;;;;;;;-2.00;100.00;101322.53;4989659;28;19960;-74
2024/01/19 00:10:09;;;;;;;;;;;;;;;-2.08;100.00;101329.69;4987447;28;20060;-73
2024/01/19 00:12:35;;;;;;;;;;;;;;;-2.08;100.00;101329.69;4985512;28;19957;-74
2024/01/19 00:15:01;;;;;;;;;;;;;;;-2.12;100.00;101334.13;4992848;28;19921;-74
2024/01/19 00:17:26;;;;;;;;;;;;;;;-2.28;100.00;101315.09;4993141;28;19943;-73
2024/01/19 00:19:52;;;;;;;;;;;;;;;-2.27;100.00;101339.66;4987865;28;19960;-74
2024/01/19 00:22:17;;;;;;;;;;;;;;;-2.26;100.00;101339.63;4991240;28;19979;-74
2024/01/19 00:24:43;;;;;;;;;;;;;;;-2.31;100.00;101324.81;4987418;28;20347;-74
2024/01/19 00:27:08;;;;;;;;;;;;;;;-2.39;100.00;101324.06;4993498;28;19917;-74
2024/01/19 00:29:33;;;;;;;;;;;;;;;-2.43;100.00;101334.63;4986509;28;19925;-74
2024/01/19 00:31:58;;;;;;;;;;;;;;;-2.43;100.00;101334.63;4993800;28;19961;-73
2024/01/19 00:34:23;;;;;;;;;;;;;;;-2.46;100.00;101323.31;4994453;28;20043;-74
2024/01/19 00:36:49;;;;;;;;;;;;;;;-2.42;100.00;101336.38;4982775;28;19917;-74
2024/01/19 00:39:14;;;;;;;;;;;;;;;-2.33;100.00;101345.00;4993437;28;20471;-73
2024/01/19 00:41:40;;;;;;;;;;;;;;;-2.45;100.00;101346.94;4992751;28;19925;-74
2024/01/19 00:44:05;;;;;;;;;;;;;;;-2.44;100.00;101356.56;4995277;28;19922;-74
2024/01/19 00:46:30;;;;;;;;;;;;;;;-2.38;100.00;101367.88;4993559;28;19921;-73
2024/01/19 00:48:55;;;;;;;;;;;;;;;-2.33;100.00;101366.06;4995882;28;19929;-74
2024/01/19 00:51:20;;;;;;;;;;;;;;;-2.26;100.00;101379.09;4995992;28;20269;-74
2024/01/19 00:53:46;;;;;;;;;;;;;;;-2.18;100.00;101384.22;4995970;28;19969;-73
2024/01/19 00:56:11;;;;;;;;;;;;;;;-2.03;100.00;101391.00;4997051;28;19963;-74
2024/01/19 00:58:37;;;;;;;;;;;;;;;-1.89;100.00;101400.44;4995100;28;20020;-74
2024/01/19 01:01:02;;;;;;;;;;;;;;;-1.76;100.00;101403.72;4990451;28;19936;-74
2024/01/19 01:03:28;;;;;;;;;;;;;;;-1.74;100.00;101401.94;4992863;28;19925;-74
2024/01/19 01:05:56;;;;;;;;;;;;;;;-1.69;100.00;101393.06;4987660;28;20486;-75
2024/01/19 01:08:21;;;;;;;;;;;;;;;-1.60;100.00;101393.81;4988465;28;19944;-74
2024/01/19 01:10:46;;;;;;;;;;;;;;;-1.53;100.00;101403.31;4995009;28;20295;-75
2024/01/19 01:13:11;;;;;;;;;;;;;;;-1.47;100.00;101391.81;4996878;28;20538;-75
2024/01/19 01:15:36;;;;;;;;;;;;;;;-1.49;100.00;101391.81;4996423;28;19932;-75
2024/01/19 01:18:02;;;;;;;;;;;;;;;-1.46;100.00;101380.38;4990594;28;19929;-75
2024/01/19 01:20:27;;;;;;;;;;;;;;;-1.46;100.00;101390.91;4994634;28;19973;-75
2024/01/19 01:22:52;;;;;;;;;;;;;;;-1.56;100.00;101388.44;4995707;28;19925;-74
2024/01/19 01:25:17;;;;;;;;;;;;;;;-1.68;100.00;101392.16;4998515;28;19968;-74
2024/01/19 01:27:43;;;;;;;;;;;;;;;-1.73;100.00;101385.25;4989452;28;19968;-75
2024/01/19 01:30:08;;;;;;;;;;;;;;;-1.82;100.00;101381.88;4994018;28;19944;-74
2024/01/19 01:32:34;;;;;;;;;;;;;;;-1.93;100.00;101375.91;4985202;28;19945;-75
2024/01/19 01:34:59;;;;;;;;;;;;;;;-1.98;100.00;101386.53;4994718;28;20015;-75
2024/01/19 01:37:24;;;;;;;;;;;;;;;-2.05;100.00;101391.94;4994044;28;20015;-74
2024/01/19 01:39:49;;;;;;;;;;;;;;;-2.14;100.00;101401.69;4992686;28;20048;-74
2024/01/19 01:42:15;;;;;;;;;;;;;;;-2.14;100.00;101393.81;4989462;28;19928;-75
2024/01/19 01:44:40;;;;;;;;;;;;;;;-2.19;100.00;101394.78;4996371;28;19955;-74
2024/01/19 01:47:05;;;;;;;;;;;;;;;-2.21;100.00;101388.66;4998068;28;19917;-75
2024/01/19 01:49:30;;;;;;;;;;;;;;;-2.43;100.00;101400.38;4995679;28;20224;-75
2024/01/19 01:51:55;;;;;;;;;;;;;;;-2.35;100.00;101397.63;4993697;28;19925;-74
2024/01/19 01:54:21;;;;;;;;;;;;;;;-2.37;100.00;101394.16;4997125;28;19941;-74
2024/01/19 01:56:46;;;;;;;;;;;;;;;-2.39;100.00;101400.34;4991734;28;19921;-74
2024/01/19 01:59:11;;;;;;;;;;;;;;;-2.38;100.00;101413.44;5005056;28;20458;-74
2024/01/19 02:01:37;;;;;;;;;;;;;;;-2.36;100.00;101406.41;4990691;28;20028;-74
2024/01/19 02:04:02;;;;;;;;;;;;;;;-2.39;100.00;101403.84;4994929;28;19925;-74
2024/01/19 02:06:27;;;;;;;;;;;;;;;-2.44;100.00;101408.31;4996160;28;19988;-74
2024/01/19 02:08:53;;;;;;;;;;;;;;;-2.69;100.00;101408.66;4990045;28;20090;-74
2024/01/19 02:11:18;;;;;;;;;;;;;;;-2.86;100.00;101419.38;4994080;28;19928;-74
2024/01/19 02:13:43;;;;;;;;;;;;;;;-3.08;100.00;101424.00;4997738;28;19921;-74
2024/01/19 02:16:08;;;;;;;;;;;;;;;-3.17;100.00;101430.25;4992881;28;19999;-74
2024/01/19 02:18:33;;;;;;;;;;;;;;;-3.19;100.00;101432.03;5000926;28;20012;-74
2024/01/19 02:20:59;;;;;;;;;;;;;;;-3.23;100.00;101432.94;4992457;28;19940;-74
2024/01/19 02:23:25;;;;;;;;;;;;;;;-3.24;100.00;101437.34;4997005;28;19921;-74
2024/01/19 02:25:50;;;;;;;;;;;;;;;-3.28;100.00;101437.34;5011246;28;20044;-74
2024/01/19 02:28:16;;;;;;;;;;;;;;;-3.17;100.00;101433.72;4992881;28;19921;-74
2024/01/19 02:30:41;;;;;;;;;;;;;;;-3.23;100.00;101435.56;4997501;28;20036;-74
2024/01/19 02:33:06;;;;;;;;;;;;;;;-3.27;100.00;101439.09;4969944;28;20266;-74
2024/01/19 02:35:31;;;;;;;;;;;;;;;-3.31;100.00;101448.78;5007445;28;19920;-74
2024/01/19 02:37:56;;;;;;;;;;;;;;;-3.36;100.00;101450.59;4996608;28;19928;-73
2024/01/19 02:40:22;;;;;;;;;;;;;;;-3.38;100.00;101447.09;4997801;28;19932;-73
2024/01/19 02:42:47;;;;;;;;;;;;;;;-3.47;100.00;101446.31;4998685;28;19921;-73
2024/01/19 02:45:12;;;;;;;;;;;;;;;-3.40;100.00;101454.13;4993810;28;20009;-73
2024/01/19 02:47:37;;;;;;;;;;;;;;;-3.46;100.00;101449.81;4997395;28;19921;-74
2024/01/19 02:50:03;;;;;;;;;;;;;;;-3.37;100.00;101443.59;4992847;28;20122;-74
2024/01/19 02:52:28;;;;;;;;;;;;;;;-3.23;100.00;101451.31;4997168;28;19921;-74
2024/01/19 02:54:53;;;;;;;;;;;;;;;-3.12;100.00;101445.94;4999123;28;19921;-74
2024/01/19 02:57:18;;;;;;;;;;;;;;;-3.23;100.00;101454.84;4976760;28;19922;-74
2024/01/19 02:59:43;;;;;;;;;;;;;;;-3.22;100.00;101455.69;4999733;28;19921;-74
2024/01/19 03:02:09;;;;;;;;;;;;;;;-3.19;100.00;101456.56;4995269;28;19945;-73
2024/01/19 03:04:34;;;;;;;;;;;;;;;-3.27;100.00;101453.13;5011103;28;19936;-74
2024/01/19 03:06:59;;;;;;;;;;;;;;;-3.38;100.00;101455.88;4995615;28;19926;-74
2024/01/19 03:09:24;;;;;;;;;;;;;;;-3.27;100.00;101452.25;4995815;28;20131;-73
2024/01/19 03:11:50;;;;;;;;;;;;;;;-3.19;100.00;101442.53;4986613;28;20019;-74
2024/01/19 03:14:15;;;;;;;;;;;;;;;-3.20;100.00;101451.28;4994355;28;19921;-74
2024/01/19 03:16:43;;;;;;;;;;;;;;;-3.24;100.00;101450.47;4993046;28;19921;-74
2024/01/19 03:19:08;;;;;;;;;;;;;;;-3.13;100.00;101446.84;4992871;28;20363;-74
2024/01/19 03:21:34;;;;;;;;;;;;;;;-3.25;100.00;101432.97;4977658;28;19932;-74
2024/01/19 03:23:59;;;;;;;;;;;;;;;-3.17;100.00;101457.38;4991309;28;19925;-74
2024/01/19 03:26:24;;;;;;;;;;;;;;;-3.17;100.00;101448.63;4997541;28;20312;-74
2024/01/19 03:28:49;;;;;;;;;;;;;;;-3.12;100.00;101457.34;4977914;28;19957;-74
2024/01/19 03:31:15;;;;;;;;;;;;;;;-3.14;100.00;101455.59;4989984;28;19943;-74
2024/01/19 03:33:40;;;;;;;;;;;;;;;-3.02;100.00;101460.72;4994484;28;20032;-74
2024/01/19 03:36:05;;;;;;;;;;;;;;;-3.07;100.00;101454.66;4997110;28;20366;-74
2024/01/19 03:38:31;;;;;;;;;;;;;;;-3.03;100.00;101453.75;4996825;28;20281;-74
2024/01/19 03:40:56;;;;;;;;;;;;;;;-2.97;100.00;101451.03;4993012;28;20011;-74
2024/01/19 03:43:21;;;;;;;;;;;;;;;-3.07;100.00;101441.53;4993272;28;19928;-74
2024/01/19 03:45:46;;;;;;;;;;;;;;;-3.05;100.00;101447.63;4991463;28;20554;-74
2024/01/19 03:48:12;;;;;;;;;;;;;;;-3.11;100.00;101445.06;4994348;28;20381;-74
2024/01/19 03:50:37;;;;;;;;;;;;;;;-3.03;100.00;101446.72;4968683;28;20165;-74
2024/01/19 03:53:02;;;;;;;;;;;;;;;-2.88;100.00;101448.28;5008074;28;19922;-73
2024/01/19 03:55:28;;;;;;;;;;;;;;;-2.80;100.00;101455.22;4993873;28;20001;-74
2024/01/19 03:57:53;;;;;;;;;;;;;;;-2.75;100.00;101458.66;4998468;28;19921;-74
2024/01/19 04:00:18;;;;;;;;;;;;;;;-2.82;100.00;101462.25;4996733;28;19926;-74
2024/01/19 04:02:43;;;;;;;;;;;;;;;-2.78;100.00;101466.59;4996275;28;19957;-73
2024/01/19 04:05:09;;;;;;;;;;;;;;;-2.55;100.00;101461.06;4991496;28;19914;-75
2024/01/19 04:07:34;;;;;;;;;;;;;;;-2.63;100.00;101468.16;4989731;28;19921;-73
2024/01/19 04:09:59;;;;;;;;;;;;;;;-2.64;100.00;101464.63;4993216;28;19932;-74
2024/01/19 04:12:24;;;;;;;;;;;;;;;-2.57;100.00;101468.09;4996827;28;20174;-74
2024/01/19 04:14:50;;;;;;;;;;;;;;;-2.57;100.00;101474.19;4998150;28;20115;-73
2024/01/19 04:17:15;;;;;;;;;;;;;;;-2.53;100.00;101479.44;4998149;28;20007;-73
2024/01/19 04:19:40;;;;;;;;;;;;;;;-2.72;100.00;101475.25;4998212;28;19921;-74
2024/01/19 04:22:05;;;;;;;;;;;;;;;-2.68;100.00;101484.00;4997700;28;20497;-74
2024/01/19 04:24:31;;;;;;;;;;;;;;;-2.77;100.00;101482.31;4985998;28;20263;-74
2024/01/19 04:26:56;;;;;;;;;;;;;;;-2.78;100.00;101485.84;4992508;28;19925;-74
2024/01/19 04:29:21;;;;;;;;;;;;;;;-2.71;100.00;101492.78;4996586;28;19925;-74
2024/01/19 04:31:46;;;;;;;;;;;;;;;-2.77;100.00;101494.63;4998998;28;20046;-73
2024/01/19 04:34:12;;;;;;;;;;;;;;;-2.66;100.00;101498.00;4998530;28;19925;-73
2024/01/19 04:36:37;;;;;;;;;;;;;;;-2.68;100.00;101504.16;4990719;28;20378;-74
2024/01/19 04:39:02;;;;;;;;;;;;;;;-2.69;100.00;101510.28;4992428;28;20020;-74
2024/01/19 04:41:27;;;;;;;;;;;;;;;-2.74;100.00;101505.09;4992744;28;20008;-74
2024/01/19 04:43:53;;;;;;;;;;;;;;;-2.81;100.00;101514.81;4998624;28;20230;-74
2024/01/19 04:46:18;;;;;;;;;;;;;;;-2.93;100.00;101517.56;4997300;28;19928;-74
2024/01/19 04:48:43;;;;;;;;;;;;;;;-2.95;100.00;101483.44;4996512;28;19917;-74
2024/01/19 04:51:08;;;;;;;;;;;;;;;-2.89;100.00;101501.75;4995472;28;19926;-74
2024/01/19 04:53:34;;;;;;;;;;;;;;;-2.86;100.00;101503.47;4997904;28;19921;-74
2024/01/19 04:55:59;;;;;;;;;;;;;;;-2.81;100.00;101504.31;4995664;28;20508;-74
2024/01/19 04:58:24;;;;;;;;;;;;;;;-2.88;100.00;101515.75;4994953;28;20387;-74
2024/01/19 05:00:49;;;;;;;;;;;;;;;-2.88;100.00;101511.38;4994575;28;20295;-74
2024/01/19 05:03:15;;;;;;;;;;;;;;;-2.82;100.00;101520.06;4991410;28;20368;-73
2024/01/19 05:05:40;;;;;;;;;;;;;;;-2.87;100.00;101525.41;4986687;28;19984;-74
2024/01/19 05:08:05;;;;;;;;;;;;;;;-2.89;100.00;101524.53;4992572;28;19921;-74
2024/01/19 05:10:32;;;;;;;;;;;;;;;-2.94;100.00;101524.59;4990421;28;19924;-74
2024/01/19 05:12:57;;;;;;;;;;;;;;;-2.94;100.00;101523.72;4997479;28;20376;-74
2024/01/19 05:15:22;;;;;;;;;;;;;;;-2.82;100.00;101527.97;4992685;28;19967;-74
2024/01/19 05:17:48;;;;;;;;;;;;;;;-2.80;100.00;101531.44;4998780;28;19925;-74
2024/01/19 05:20:13;;;;;;;;;;;;;;;-2.77;100.00;101534.91;4991472;28;19995;-74
2024/01/19 05:22:38;;;;;;;;;;;;;;;-2.75;100.00;101540.16;4978172;28;19921;-74
2024/01/19 05:25:03;;;;;;;;;;;;;;;-2.80;100.00;101549.84;4995881;28;19918;-74
2024/01/19 05:27:29;;;;;;;;;;;;;;;-2.82;100.00;101554.25;4969159;28;20225;-74
2024/01/19 05:29:54;;;;;;;;;;;;;;;-2.77;100.00;101561.19;4983757;28;19921;-74
2024/01/19 05:32:19;;;;;;;;;;;;;;;-2.75;100.00;101559.41;4971197;28;19918;-74
2024/01/19 05:34:44;;;;;;;;;;;;;;;-2.63;100.00;101571.56;4970047;28;19921;-74
2024/01/19 05:37:09;;;;;;;;;;;;;;;-2.52;100.00;101592.50;4986539;28;20015;-74
2024/01/19 05:39:35;;;;;;;;;;;;;;;-2.47;100.00;101630.09;4985253;28;20003;-73
2024/01/19 05:42:00;;;;;;;;;;;;;;;-2.23;100.00;101627.22;4986996;28;19925;-74
2024/01/19 05:44:25;;;;;;;;;;;;;;;-2.08;100.00;101632.28;4986103;28;20016;-74
2024/01/19 05:46:50;;;;;;;;;;;;;;;-2.02;100.00;101640.13;4988746;28;19925;-74
2024/01/19 05:49:15;;;;;;;;;;;;;;;-1.98;100.00;101619.88;4989942;28;19960;-74
2024/01/19 05:51:42;;;;;;;;;;;;;;;-1.97;100.00;101605.84;4995170;28;19971;-74
2024/01/19 05:54:07;;;;;;;;;;;;;;;-1.92;100.00;101608.44;4993259;28;20012;-74
2024/01/19 05:56:33;;;;;;;;;;;;;;;-1.89;100.00;101605.75;4978341;28;19928;-76
2024/01/19 05:58:58;;;;;;;;;;;;;;;-1.88;100.00;101605.72;4992653;28;19917;-75
2024/01/19 06:01:23;;;;;;;;;;;;;;;-1.93;100.00;101591.75;4993063;28;19930;-75
2024/01/19 06:03:48;;;;;;;;;;;;;;;-1.91;100.00;101605.75;4987398;28;20029;-74
2024/01/19 06:06:14;;;;;;;;;;;;;;;-2.05;100.00;101615.63;4994222;28;19922;-75
2024/01/19 06:08:39;;;;;;;;;;;;;;;-2.15;100.00;101614.88;4977180;28;19961;-74
2024/01/19 06:11:04;;;;;;;;;;;;;;;-2.21;100.00;101612.31;5006241;28;19921;-74
2024/01/19 06:13:29;;;;;;;;;;;;;;;-2.24;100.00;101618.44;4992166;28;20016;-75
2024/01/19 06:15:55;;;;;;;;;;;;;;;-2.30;100.00;101611.50;4984487;28;19925;-75
2024/01/19 06:18:20;;;;;;;;;;;;;;;-2.33;100.00;101613.31;4992682;28;19931;-75
2024/01/19 06:20:45;;;;;;;;;;;;;;;-2.51;100.00;101623.13;4995889;28;19969;-74
2024/01/19 06:23:10;;;;;;;;;;;;;;;-2.52;100.00;101636.31;4974945;28;20016;-74
2024/01/19 06:25:36;;;;;;;;;;;;;;;-2.60;100.00;101641.66;4996840;28;20291;-75
2024/01/19 06:28:02;;;;;;;;;;;;;;;-2.66;100.00;101641.72;4979035;28;20358;-74
2024/01/19 06:30:27;;;;;;;;;;;;;;;-2.68;100.00;101636.47;5000350;28;19917;-74
2024/01/19 06:32:52;;;;;;;;;;;;;;;-2.74;100.00;101637.38;4981691;28;19968;-74
2024/01/19 06:35:17;;;;;;;;;;;;;;;-2.82;100.00;101646.25;4998703;28;20008;-74
2024/01/19 06:37:43;;;;;;;;;;;;;;;-2.86;100.00;101643.63;4999309;28;19924;-73
2024/01/19 06:40:10;;;;;;;;;;;;;;;-2.92;100.00;101651.59;4991723;28;19922;-74
2024/01/19 06:42:36;;;;;;;;;;;;;;;-3.02;100.00;101661.28;4996578;28;20017;-74
2024/01/19 06:45:01;;;;;;;;;;;;;;;-3.07;100.00;101665.72;4988900;28;19921;-74
2024/01/19 06:47:26;;;;;;;;;;;;;;;-3.17;100.00;101664.03;5002041;28;19924;-74
2024/01/19 06:49:52;;;;;;;;;;;;;;;-3.26;100.00;101665.00;4999502;28;19953;-73
2024/01/19 06:52:17;;;;;;;;;;;;;;;-3.21;100.00;101671.09;4997672;28;19921;-74
2024/01/19 06:54:42;;;;;;;;;;;;;;;-3.21;100.00;101672.81;5000217;28;20004;-74
2024/01/19 06:57:08;;;;;;;;;;;;;;;-3.28;100.00;101674.63;4994251;28;19929;-73
2024/01/19 06:59:33;;;;;;;;;;;;;;;-3.29;100.00;101691.28;4995968;28;20034;-74
2024/01/19 07:01:58;;;;;;;;;;;;;;;-3.32;100.00;101691.28;4999784;28;20386;-74
2024/01/19 07:04:24;;;;;;;;;;;;;;;-3.33;100.00;101700.03;4982518;28;20654;-74
2024/01/19 07:06:49;;;;;;;;;;;;;;;-3.33;100.00;101707.94;4977984;28;20012;-73
2024/01/19 07:09:15;;;;;;;;;;;;;;;-3.45;100.00;101711.50;4995682;28;19921;-73
2024/01/19 07:11:41;;;;;;;;;;;;;;;-3.54;100.00;101717.69;5000310;28;19929;-73
2024/01/19 07:14:06;;;;;;;;;;;;;;;-3.56;100.00;101716.81;4992322;28;19924;-73
2024/01/19 07:16:31;;;;;;;;;;;;;;;-3.64;100.00;101729.09;4987812;28;19925;-73
2024/01/19 07:18:56;;;;;;;;;;;;;;;-3.67;100.00;101731.72;4998914;28;20588;-73
2024/01/19 07:21:22;;;;;;;;;;;;;;;-3.67;100.00;101729.09;4998070;28;19925;-73
2024/01/19 07:23:47;;;;;;;;;;;;;;;-3.65;100.00;101736.09;4994556;28;19928;-73
2024/01/19 07:26:12;;;;;;;;;;;;;;;-3.64;100.00;101736.97;5000322;28;19955;-73
2024/01/19 07:28:38;;;;;;;;;;;;;;;-3.69;100.00;101751.84;4987199;28;19928;-73
2024/01/19 07:31:03;;;;;;;;;;;;;;;-3.74;100.00;101749.25;4994844;28;20034;-73
2024/01/19 07:33:28;;;;;;;;;;;;;;;-3.75;100.00;101747.50;4995379;28;20406;-73
2024/01/19 07:35:54;;;;;;;;;;;;;;;-3.75;100.00;101752.75;4989838;28;19980;-73
2024/01/19 07:38:19;;;;;;;;;;;;;;;-3.73;100.00;101756.25;5009245;28;20518;-73
2024/01/19 07:40:44;;;;;;;;;;;;;;;-3.68;100.00;101761.47;4994620;28;19947;-73
2024/01/19 07:43:09;;;;;;;;;;;;;;;-3.73;100.00;101760.66;5011100;28;19947;-73
2024/01/19 07:45:34;;;;;;;;;;;;;;;-3.69;100.00;101773.75;4997553;28;20008;-73
2024/01/19 07:48:00;;;;;;;;;;;;;;;-3.72;100.00;101765.00;4991300;28;19922;-73
2024/01/19 07:50:25;;;;;;;;;;;;;;;-3.80;100.00;101767.63;4998339;28;20576;-73
2024/01/19 07:52:50;;;;;;;;;;;;;;;-3.75;100.00;101770.28;4988148;28;19965;-73
2024/01/19 07:55:16;;;;;;;;;;;;;;;-3.77;100.00;101771.16;4997690;28;19918;-73
2024/01/19 07:57:41;;;;;;;;;;;;;;;-3.68;100.00;101771.97;4999035;28;19952;-73
2024/01/19 08:00:07;;;;;;;;;;;;;;;-3.62;100.00;101771.97;4997740;28;19927;-73
2024/01/19 08:02:32;;;;;;;;;;;;;;;-3.52;100.00;101775.41;4994912;28;19925;-73
2024/01/19 08:04:57;;;;;;;;;;;;;;;-3.49;100.00;101770.16;4979856;28;20710;-73
2024/01/19 08:07:24;;;;;;;;;;;;;;;-3.41;100.00;101784.13;4993088;28;20295;-73
2024/01/19 08:09:49;;;;;;;;;;;;;;;-3.39;100.00;101785.00;4991576;28;20446;-73
2024/01/19 08:12:15;;;;;;;;;;;;;;;-3.39;100.00;101792.88;4995928;28;19918;-73
2024/01/19 08:14:40;;;;;;;;;;;;;;;-3.12;100.00;101795.38;4999300;28;19960;-74
2024/01/19 08:17:05;;;;;;;;;;;;;;;-3.11;100.00;101794.47;4996789;28;19929;-73
2024/01/19 08:19:30;;;;;;;;;;;;;;;-3.03;100.00;101804.06;4996350;28;19959;-73
2024/01/19 08:21:56;;;;;;;;;;;;;;;-2.95;100.00;101809.31;4984938;28;19984;-74
2024/01/19 08:24:21;;;;;;;;;;;;;;;-2.96;100.00;101812.81;4996979;28;20036;-73
2024/01/19 08:26:46;;;;;;;;;;;;;;;-2.90;100.00;101817.16;4993688;28;19965;-74
2024/01/19 08:29:12;;;;;;;;;;;;;;;-2.66;100.00;101829.28;4984573;28;20041;-74
2024/01/19 08:31:37;;;;;;;;;;;;;;;-2.56;100.00;101833.56;4994428;28;19963;-74
2024/01/19 08:34:02;;;;;;;;;;;;;;;-2.32;100.00;101846.56;4997865;28;20008;-74
2024/01/19 08:36:27;;;;;;;;;;;;;;;-2.34;100.00;101848.31;4998666;28;19963;-73
2024/01/19 08:38:53;;;;;;;;;;;;;;;-2.25;100.00;101850.84;4995727;28;20443;-73
2024/01/19 08:41:18;;;;;;;;;;;;;;;-2.00;100.00;101861.22;4991530;28;20432;-73
2024/01/19 08:43:43;;;;;;;;;;;;;;;-1.91;100.00;101866.38;4991109;28;19922;-73
2024/01/19 08:46:09;;;;;;;;;;;;;;;-1.77;100.00;101860.97;4996959;28;19917;-74
2024/01/19 08:48:34;;;;;;;;;;;;;;;-1.72;100.00;101874.97;4997097;28;19921;-73
2024/01/19 08:50:59;;;;;;;;;;;;;;;-1.68;100.00;101889.84;4994219;28;19921;-73
2024/01/19 08:53:24;;;;;;;;;;;;;;;-1.66;100.00;101889.81;4986751;28;19928;-74
2024/01/19 08:55:50;;;;;;;;;;;;;;;-1.51;100.00;101888.81;4982827;28;19917;-74
2024/01/19 08:58:15;;;;;;;;;;;;;;;-1.45;100.00;101895.75;4996928;28;19921;-73
2024/01/19 09:00:40;;;;;;;;;;;;;;;-1.22;100.00;101901.69;4995485;28;19995;-73
2024/01/19 09:03:05;;;;;;;;;;;;;;;-1.21;100.00;101898.16;4992303;28;19922;-74
2024/01/19 09:05:31;;;;;;;;;;;;;;;-1.24;100.00;101908.72;4990864;28;20047;-73
2024/01/19 09:07:56;;;;;;;;;;;;;;;-1.30;100.00;101911.41;4993533;28;20008;-74
2024/01/19 09:10:23;;;;;;;;;;;;;;;-1.48;100.00;101916.91;4995784;28;19968;-73
2024/01/19 09:12:48;;;;;;;;;;;;;;;-1.41;100.00;101924.72;4997257;28;19921;-73
2024/01/19 09:15:16;;;;;;;;;;;;;;;-1.51;100.00;101929.19;4997398;28;19932;-73
2024/01/19 09:17:41;;;;;;;;;;;;;;;-1.53;100.00;101936.25;4991893;28;19928;-73
2024/01/19 09:20:06;;;;;;;;;;;;;;;-1.64;100.00;101934.59;5001856;28;19921;-73
2024/01/19 09:22:32;;;;;;;;;;;;;;;-1.57;100.00;101936.28;4994568;28;19926;-73
2024/01/19 09:24:57;;;;;;;;;;;;;;;-1.63;100.00;101939.84;4996202;28;19979;-74
2024/01/19 09:27:22;;;;;;;;;;;;;;;-1.63;100.00;101942.47;4997957;28;19917;-74
2024/01/19 09:29:48;;;;;;;;;;;;;;;-1.72;100.00;101945.22;4995501;28;19987;-74
2024/01/19 09:32:16;;;;;;;;;;;;;;;-1.65;100.00;101949.50;4990849;28;20375;-74
2024/01/19 09:34:41;;;;;;;;;;;;;;;-1.56;100.00;101951.19;4997183;28;19944;-74
2024/01/19 09:37:06;;;;;;;;;;;;;;;-1.49;100.00;101954.66;4993126;28;20283;-74
2024/01/19 09:39:32;;;;;;;;;;;;;;;-1.53;100.00;101951.16;4994027;28;19921;-74
2024/01/19 09:42:02;;;;;;;;;;;;;;;-1.43;100.00;101946.66;4992887;28;20322;-74
2024/01/19 09:44:28;;;;;;;;;;;;;;;-1.27;100.00;101948.28;4990369;28;20025;-74
2024/01/19 09:46:54;;;;;;;;;;;;;;;-1.04;100.00;101936.59;4971918;28;19960;-74
2024/01/19 09:49:28;;;;;;;;;;;;;;;-0.78;100.00;101956.50;4992148;28;20020;-74
2024/01/19 09:51:56;;;;;;;;;;;;;;;-0.59;100.00;101958.91;4997533;28;20011;-75
2024/01/19 09:54:32;;;;;;;;;;;;;;;-0.16;100.00;101968.88;4996968;28;19925;-74
2024/01/19 09:56:58;;;;;;;;;;;;;;;0.51;100.00;101986.31;4996540;28;19921;-75
2024/01/19 09:59:23;;;;;;;;;;;;;;;0.81;100.00;101991.94;4996243;28;20699;-75
2024/01/19 10:01:49;;;;;;;;;;;;;;;1.10;100.00;101995.78;4989542;28;19966;-75
2024/01/19 10:04:15;;;;;;;;;;;;;;;1.36;100.00;101997.94;4992790;28;19925;-75
2024/01/19 10:06:41;;;;;;;;;;;;;;;1.56;100.00;102002.81;4993925;28;20181;-75
2024/01/19 10:09:06;;;;;;;;;;;;;;;2.23;100.00;102003.97;4994117;28;19956;-75
2024/01/19 10:11:31;;;;;;;;;;;;;;;2.42;100.00;102014.97;4995738;28;20334;-75
2024/01/19 10:13:56;;;;;;;;;;;;;;;2.53;100.00;102012.94;4978061;28;20332;-75
2024/01/19 10:16:22;;;;;;;;;;;;;;;2.55;100.00;102021.72;4991992;28;20396;-76
2024/01/19 10:18:47;;;;;;;;;;;;;;;2.67;100.00;102017.88;4994348;28;19925;-75
2024/01/19 10:21:13;;;;;;;;;;;;;;;3.13;100.00;102018.44;4992679;28;19961;-75
2024/01/19 10:23:41;;;;;;;;;;;;;;;3.01;100.00;102016.13;4991999;28;20008;-75
2024/01/19 10:26:14;;;;;;;;;;;;;;;3.21;100.00;102020.00;4994796;28;20371;-75
2024/01/19 10:28:39;;;;;;;;;;;;;;;3.20;100.00;102020.91;4992825;28;19918;-74
2024/01/19 10:31:22;;;;;;;;;;;;;;;3.41;100.00;102006.16;4987992;28;19968;-73
2024/01/19 10:33:48;;;;;;;;;;;;;;;3.84;100.00;102017.28;4988730;28;20375;-75
2024/01/19 10:36:13;;;;;;;;;;;;;;;4.57;100.00;102018.50;4991761;28;19921;-76
2024/01/19 10:38:38;;;;;;;;;;;;;;;4.67;100.00;102018.19;4998517;28;19921;-76
2024/01/19 10:41:04;;;;;;;;;;;;;;;5.10;100.00;102012.25;4994069;28;19933;-74
2024/01/19 10:43:30;;;;;;;;;;;;;;;5.63;100.00;102004.97;4994451;28;20397;-76
2024/01/19 10:45:55;;;;;;;;;;;;;;;6.08;100.00;102005.94;4995348;28;20016;-76
2024/01/19 10:48:25;;;;;;;;;;;;;;;6.19;100.00;102012.63;4999618;28;19925;-76
2024/01/19 10:50:50;;;;;;;;;;;;;;;5.72;100.00;102022.41;4999304;28;20437;-76
2024/01/19 10:53:15;;;;;;;;;;;;;;;6.00;100.00;102024.88;4997240;28;19925;-76
2024/01/19 10:55:46;;;;;;;;;;;;;;;6.33;100.00;102023.59;4986529;28;20220;-76
2024/01/19 10:58:12;;;;;;;;;;;;;;;6.66;100.00;102023.09;4997887;28;20537;-75
2024/01/19 11:00:38;;;;;;;;;;;;;;;6.28;100.00;102021.09;4996421;28;20012;-73
2024/01/19 11:03:03;;;;;;;;;;;;;;;6.12;100.00;102017.34;4991904;28;19925;-74
2024/01/19 11:05:29;;;;;;;;;;;;;;;5.39;100.00;102018.31;4991957;28;20362;-72
2024/01/19 11:07:55;;;;;;;;;;;;;;;4.83;100.00;102026.53;4993817;28;20016;-72
2024/01/19 11:10:21;;;;;;;;;;;;;;;5.71;100.00;102016.19;4995021;28;19928;-72
2024/01/19 11:12:51;;;;;;;;;;;;;;;5.91;100.00;102016.34;4977496;28;19918;-72
2024/01/19 11:15:36;;;;;;;;;;;;;;;6.37;100.00;102016.34;4985087;28;19932;-72
2024/01/19 11:18:05;;;;;;;;;;;;;;;7.04;100.00;102014.38;5006428;28;20380;-71
2024/01/19 11:20:31;;;;;;;;;;;;;;;7.31;100.00;102009.63;4994763;28;20000;-71
2024/01/19 11:22:56;;;;;;;;;;;;;;;6.91;100.00;102008.69;4991912;28;19921;-71
2024/01/19 11:25:38;;;;;;;;;;;;;;;6.97;100.00;102007.59;4993778;28;19913;-72
2024/01/19 11:28:14;;;;;;;;;;;;;;;6.79;100.00;102002.09;4988646;28;20003;-71
2024/01/19 11:30:48;;;;;;;;;;;;;;;6.80;100.00;102008.31;4997885;28;19905;-71
2024/01/19 11:33:19;;;;;;;;;;;;;;;7.61;100.00;102008.25;4998473;28;20285;-72
2024/01/19 11:35:48;;;;;;;;;;;;;;;7.60;100.00;102015.44;4994048;28;20442;-71
2024/01/19 11:38:32;;;;;;;;;;;;;;;6.92;100.00;102015.78;4997680;28;19964;-71
2024/01/19 11:40:58;;;;;;;;;;;;;;;7.38;100.00;102009.34;4999513;28;19928;-72
2024/01/19 11:43:39;;;;;;;;;;;;;;;7.75;100.00;102005.84;4999187;28;19921;-71
2024/01/19 11:46:04;;;;;;;;;;;;;;;7.75;100.00;102008.50;4989505;28;19964;-71
2024/01/19 11:48:43;;;;;;;;;;;;;;;7.50;100.00;102012.31;4996137;28;19921;-71
2024/01/19 11:51:09;;;;;;;;;;;;;;;7.53;100.00;102002.44;4988638;28;19921;-72
2024/01/19 11:54:00;;;;;;;;;;;;;;;8.42;100.00;102018.69;4997175;28;20225;-72
2024/01/19 11:56:26;;;;;;;;;;;;;;;7.16;100.00;102015.63;4989553;28;19921;-71
2024/01/19 11:58:51;;;;;;;;;;;;;;;7.51;100.00;102015.84;4990497;28;19932;-72
2024/01/19 12:01:16;;;;;;;;;;;;;;;7.55;100.00;102017.44;4991537;28;19925;-72
2024/01/19 12:03:42;;;;;;;;;;;;;;;7.46;100.00;102015.19;5013229;28;19929;-72
2024/01/19 12:06:07;;;;;;;;;;;;;;;7.81;100.00;102020.72;4995423;28;20447;-73
2024/01/19 12:08:33;;;;;;;;;;;;;;;7.23;100.00;102022.44;4995604;28;19917;-71
2024/01/19 12:11:05;;;;;;;;;;;;;;;7.91;100.00;102027.38;4980311;28;19928;-72
2024/01/19 12:13:31;;;;;;;;;;;;;;;8.73;100.00;102027.88;4997723;28;20249;-73
2024/01/19 12:15:57;;;;;;;;;;;;;;;8.36;100.00;102029.69;4997617;28;20372;-72
2024/01/19 12:18:22;;;;;;;;;;;;;;;8.21;100.00;102029.47;4993847;28;20012;-72
2024/01/19 12:20:47;;;;;;;;;;;;;;;9.50;100.00;102027.47;4992889;28;20304;-73